Afon Alaw — 2FCZ7 — position and weather

sailwx.info

Track history (hours):
 
Tides and Currents Weather Stations Pressure Air Temp Water Temp Dewpoint Dewpoint Depression Visibility Wind Speed Wind Dir Waves Ship Positions

Afon Alaw

Last reported at 2016-Aug-18 20:33 UTC. Time now 2016-Aug-30 14:56 UTC.
Position N 55°32' E 015°05'.
Warning: this ship's position is 11 days out of date.

Length 25 m; draft 2.8 m.

Type: Tug. MMSI: 235090202.

Date/timePositionNaut miles runAvg speedWind from/ knotsBaromVisibWave heightAir tempDewpointWater temp
2016-Aug-18 20:33N 55°32' E 015°05'7 7.3
2016-Aug-18 19:33N 55°29' E 014°54'7 7.5
2016-Aug-18 18:33N 55°24' E 014°43'7 7.1
2016-Aug-18 17:33N 55°19' E 014°35'7 6.8
2016-Aug-18 16:33N 55°14' E 014°28'7 6.9
2016-Aug-18 15:33N 55°09' E 014°20'8 7.5
2016-Aug-18 14:33N 55°03' E 014°11'7 7.1
2016-Aug-18 13:33N 54°59' E 014°01'50 7.1
2016-Aug-18 06:32N 54°39' E 012°41'21 6.7
2016-Aug-18 03:27N 54°27' E 012°13'6 6.4
2016-Aug-18 02:31N 54°24' E 012°04'7 7.1
2016-Aug-18 01:33N 54°24' E 011°52'7 6.9
2016-Aug-18 00:33N 54°26' E 011°41'7 7.1
2016-Aug-17 23:33N 54°29' E 011°30'7 7.2
2016-Aug-17 22:33N 54°32' E 011°18'7 7.0
2016-Aug-17 21:33N 54°35' E 011°07'7 7.2
2016-Aug-17 20:33N 54°34' E 010°55'8 7.9
2016-Aug-17 19:33N 54°33' E 010°41'8 8.0
2016-Aug-17 18:33N 54°32' E 010°28'8 7.8
2016-Aug-17 17:33N 54°28' E 010°16'7 7.2
2016-Aug-17 16:34N 54°22' E 010°08'2 2.0
2016-Aug-17 15:27N 54°22' E 010°05'5 6.0
2016-Aug-17 14:33N 54°21' E 009°56'27 6.1
2016-Aug-17 10:05N 54°04' E 009°19'4 7.7
2016-Aug-17 09:33N 53°60' E 009°18'7 7.5
2016-Aug-17 08:33N 53°54' E 009°10'1 0.5
2016-Aug-17 07:25N 53°54' E 009°09'0 0.0
2016-Aug-17 05:31N 53°54' E 009°09'0 0.0
2016-Aug-17 04:30N 53°54' E 009°09'0 0.0
2016-Aug-17 02:11N 53°54' E 009°09'0 0.2
2016-Aug-17 01:33N 53°54' E 009°09'7 7.4
2016-Aug-17 00:33N 53°51' E 008°57'8 8.0
2016-Aug-16 23:33N 53°52' E 008°44'20 8.1
2016-Aug-16 21:05N 53°59' E 008°13'5 8.3
2016-Aug-16 20:31N 53°59' E 008°05'34 8.5
2016-Aug-16 16:33N 53°51' E 007°09'7 7.2
2016-Aug-16 15:33N 53°49' E 006°57'13 6.6
2016-Aug-16 13:33N 53°46' E 006°35'  
2016-Aug-11 02:25N 53°33' W 003°44'3 3.9
2016-Aug-11 01:33N 53°33' W 003°38'4 4.1
2016-Aug-11 00:33N 53°33' W 003°31'4 4.4
2016-Aug-10 23:33N 53°33' W 003°24'5 5.4
2016-Aug-10 22:33N 53°31' W 003°15'7 6.9
2016-Aug-10 21:33N 53°29' W 003°04'3 2.9
2016-Aug-10 20:33N 53°27' W 003°01'1 0.6
2016-Aug-10 19:33N 53°26' W 002°60'0 0.0
2016-Aug-10 18:33N 53°26' W 002°60'0 0.0
2016-Aug-10 17:33N 53°26' W 002°60'0 0.3
2016-Aug-10 16:33N 53°26' W 003°00'0 0.0
2016-Aug-10 15:33N 53°26' W 003°00'0 0.0
2016-Aug-10 14:34N 53°26' W 003°00'0 0.0
2016-Aug-10 13:33N 53°26' W 003°00'0 0.3
2016-Aug-10 12:33N 53°26' W 003°00'0 0.0
2016-Aug-10 11:33N 53°26' W 003°00'0 0.0
2016-Aug-10 10:34N 53°26' W 003°00'0 0.0
2016-Aug-10 09:33N 53°26' W 003°00'0 0.0
2016-Aug-10 08:33N 53°26' W 003°00'0 0.0
2016-Aug-10 07:34N 53°26' W 003°00'0 0.0
2016-Aug-10 06:33N 53°26' W 003°00'0 0.0
2016-Aug-10 05:33N 53°26' W 003°00'0 0.0
2016-Aug-10 04:33N 53°26' W 003°00'0 0.0
2016-Aug-10 03:33N 53°26' W 003°00'0 0.0
2016-Aug-10 02:33N 53°26' W 003°00'0 0.0
2016-Aug-10 01:33N 53°26' W 003°00'0 0.0
2016-Aug-10 00:33N 53°26' W 003°00'0 0.0
2016-Aug-09 23:34N 53°26' W 003°00'0 0.0
2016-Aug-09 22:33N 53°26' W 003°00'0 0.0
2016-Aug-09 21:33N 53°26' W 003°00'0 0.0
2016-Aug-09 20:33N 53°26' W 003°00'0 0.0
2016-Aug-09 19:33N 53°26' W 003°00'0 0.0
2016-Aug-09 18:33N 53°26' W 003°00'0 0.0
2016-Aug-09 17:34N 53°26' W 003°00'0 0.0
2016-Aug-09 16:33N 53°26' W 003°00'0 0.0
2016-Aug-09 15:33N 53°26' W 003°00'0 0.0
2016-Aug-09 14:33N 53°26' W 003°00'0 0.0
2016-Aug-09 13:32N 53°26' W 003°00'0 0.0
2016-Aug-09 12:33N 53°26' W 003°00'0 0.0
2016-Aug-09 11:33N 53°26' W 003°00'0 0.0
2016-Aug-09 10:33N 53°26' W 003°00'0 0.0
2016-Aug-09 09:33N 53°26' W 003°00'0 0.0
2016-Aug-09 08:33N 53°26' W 003°00'0 0.0
2016-Aug-09 07:33N 53°26' W 003°00'0 0.0
2016-Aug-09 05:33N 53°26' W 003°00'0 0.0
2016-Aug-09 04:33N 53°26' W 003°00'0 0.0
2016-Aug-09 03:33N 53°26' W 003°00'0 0.0
2016-Aug-09 02:33N 53°26' W 003°00'0 0.0
2016-Aug-09 01:33N 53°26' W 003°00'0 0.0
2016-Aug-09 00:33N 53°26' W 003°00'0 0.0
2016-Aug-08 23:33N 53°26' W 003°00'0 0.0
2016-Aug-08 22:33N 53°26' W 003°00'0 0.0
2016-Aug-08 21:33N 53°26' W 003°00'  
Track history (hours):
 
Tides and Currents Weather Stations Pressure Air Temp Water Temp Dewpoint Dewpoint Depression Visibility Wind Speed Wind Dir Waves Ship Positions

Afon Alaw

Last reported at 2016-Aug-18 20:33 UTC. Time now 2016-Aug-30 14:56 UTC.
Position N 55°32' E 015°05'.
Warning: this ship's position is 11 days out of date.

Length 25 m; draft 2.8 m.

Type: Tug. MMSI: 235090202.

Date/timePositionNaut miles runAvg speedWind from/ knotsBaromVisibWave heightAir tempDewpointWater temp
2016-Aug-18 20:33N 55°32' E 015°05'7 7.3
2016-Aug-18 19:33N 55°29' E 014°54'7 7.5
2016-Aug-18 18:33N 55°24' E 014°43'7 7.1
2016-Aug-18 17:33N 55°19' E 014°35'7 6.8
2016-Aug-18 16:33N 55°14' E 014°28'7 6.9
2016-Aug-18 15:33N 55°09' E 014°20'8 7.5
2016-Aug-18 14:33N 55°03' E 014°11'7 7.1
2016-Aug-18 13:33N 54°59' E 014°01'50 7.1
2016-Aug-18 06:32N 54°39' E 012°41'21 6.7
2016-Aug-18 03:27N 54°27' E 012°13'6 6.4
2016-Aug-18 02:31N 54°24' E 012°04'7 7.1
2016-Aug-18 01:33N 54°24' E 011°52'7 6.9
2016-Aug-18 00:33N 54°26' E 011°41'7 7.1
2016-Aug-17 23:33N 54°29' E 011°30'7 7.2
2016-Aug-17 22:33N 54°32' E 011°18'7 7.0
2016-Aug-17 21:33N 54°35' E 011°07'7 7.2
2016-Aug-17 20:33N 54°34' E 010°55'8 7.9
2016-Aug-17 19:33N 54°33' E 010°41'8 8.0
2016-Aug-17 18:33N 54°32' E 010°28'8 7.8
2016-Aug-17 17:33N 54°28' E 010°16'7 7.2
2016-Aug-17 16:34N 54°22' E 010°08'2 2.0
2016-Aug-17 15:27N 54°22' E 010°05'5 6.0
2016-Aug-17 14:33N 54°21' E 009°56'27 6.1
2016-Aug-17 10:05N 54°04' E 009°19'4 7.7
2016-Aug-17 09:33N 53°60' E 009°18'7 7.5
2016-Aug-17 08:33N 53°54' E 009°10'1 0.5
2016-Aug-17 07:25N 53°54' E 009°09'0 0.0
2016-Aug-17 05:31N 53°54' E 009°09'0 0.0
2016-Aug-17 04:30N 53°54' E 009°09'0 0.0
2016-Aug-17 02:11N 53°54' E 009°09'0 0.2
2016-Aug-17 01:33N 53°54' E 009°09'7 7.4
2016-Aug-17 00:33N 53°51' E 008°57'8 8.0
2016-Aug-16 23:33N 53°52' E 008°44'20 8.1
2016-Aug-16 21:05N 53°59' E 008°13'5 8.3
2016-Aug-16 20:31N 53°59' E 008°05'34 8.5
2016-Aug-16 16:33N 53°51' E 007°09'7 7.2
2016-Aug-16 15:33N 53°49' E 006°57'13 6.6
2016-Aug-16 13:33N 53°46' E 006°35'  
2016-Aug-11 02:25N 53°33' W 003°44'3 3.9
2016-Aug-11 01:33N 53°33' W 003°38'4 4.1
2016-Aug-11 00:33N 53°33' W 003°31'4 4.4
2016-Aug-10 23:33N 53°33' W 003°24'5 5.4
2016-Aug-10 22:33N 53°31' W 003°15'7 6.9
2016-Aug-10 21:33N 53°29' W 003°04'3 2.9
2016-Aug-10 20:33N 53°27' W 003°01'1 0.6
2016-Aug-10 19:33N 53°26' W 002°60'0 0.0
2016-Aug-10 18:33N 53°26' W 002°60'0 0.0
2016-Aug-10 17:33N 53°26' W 002°60'0 0.3
2016-Aug-10 16:33N 53°26' W 003°00'0 0.0
2016-Aug-10 15:33N 53°26' W 003°00'0 0.0
2016-Aug-10 14:34N 53°26' W 003°00'0 0.0
2016-Aug-10 13:33N 53°26' W 003°00'0 0.3
2016-Aug-10 12:33N 53°26' W 003°00'0 0.0
2016-Aug-10 11:33N 53°26' W 003°00'0 0.0
2016-Aug-10 10:34N 53°26' W 003°00'0 0.0
2016-Aug-10 09:33N 53°26' W 003°00'0 0.0
2016-Aug-10 08:33N 53°26' W 003°00'0 0.0
2016-Aug-10 07:34N 53°26' W 003°00'0 0.0
2016-Aug-10 06:33N 53°26' W 003°00'0 0.0
2016-Aug-10 05:33N 53°26' W 003°00'0 0.0
2016-Aug-10 04:33N 53°26' W 003°00'0 0.0
2016-Aug-10 03:33N 53°26' W 003°00'0 0.0
2016-Aug-10 02:33N 53°26' W 003°00'0 0.0
2016-Aug-10 01:33N 53°26' W 003°00'0 0.0
2016-Aug-10 00:33N 53°26' W 003°00'0 0.0
2016-Aug-09 23:34N 53°26' W 003°00'0 0.0
2016-Aug-09 22:33N 53°26' W 003°00'0 0.0
2016-Aug-09 21:33N 53°26' W 003°00'0 0.0
2016-Aug-09 20:33N 53°26' W 003°00'0 0.0
2016-Aug-09 19:33N 53°26' W 003°00'0 0.0
2016-Aug-09 18:33N 53°26' W 003°00'0 0.0
2016-Aug-09 17:34N 53°26' W 003°00'0 0.0
2016-Aug-09 16:33N 53°26' W 003°00'0 0.0
2016-Aug-09 15:33N 53°26' W 003°00'0 0.0
2016-Aug-09 14:33N 53°26' W 003°00'0 0.0
2016-Aug-09 13:32N 53°26' W 003°00'0 0.0
2016-Aug-09 12:33N 53°26' W 003°00'0 0.0
2016-Aug-09 11:33N 53°26' W 003°00'0 0.0
2016-Aug-09 10:33N 53°26' W 003°00'0 0.0
2016-Aug-09 09:33N 53°26' W 003°00'0 0.0
2016-Aug-09 08:33N 53°26' W 003°00'0 0.0
2016-Aug-09 07:33N 53°26' W 003°00'0 0.0
2016-Aug-09 05:33N 53°26' W 003°00'0 0.0
2016-Aug-09 04:33N 53°26' W 003°00'0 0.0
2016-Aug-09 03:33N 53°26' W 003°00'0 0.0
2016-Aug-09 02:33N 53°26' W 003°00'0 0.0
2016-Aug-09 01:33N 53°26' W 003°00'0 0.0
2016-Aug-09 00:33N 53°26' W 003°00'0 0.0
2016-Aug-08 23:33N 53°26' W 003°00'0 0.0
2016-Aug-08 22:33N 53°26' W 003°00'0 0.0
2016-Aug-08 21:33N 53°26' W 003°00'  

Dump ship's entire track history